Detalii statie BONGA [00001D00]

Toti senzorii

Date Temperatura solului [C]Precipitatii [mm]Voltaj baterie [mV]Leaf Wetness [Min]HC Air temperature [C]HC Relative humidity [%]Punctul de roua [C]
medieminmaxsumaultimatimpmedieminmaxmediemediemin
2018-10-13 16:00:00 14.1 14 14.2 0 7098
2018-10-13 17:00:00 13.5 13 14 0 7070
2018-10-13 18:00:00 12.4 11.9 12.9 0 7020
2018-10-13 19:00:00 11.4 11.2 11.8 0 6982
2018-10-13 20:00:00 10.7 10.5 11 0 6952
2018-10-13 21:00:00 10.3 10.1 10.6 0 6914
2018-10-13 22:00:00 9.9 9.7 10.2 0 6904
2018-10-13 23:00:00 9.5 9.3 9.8 0 6884
2018-10-14 00:00:00 9.1 8.9 9.3 0 6874
2018-10-14 01:00:00 8.7 8.6 8.9 0 6854
2018-10-14 02:00:00 8.3 8.2 8.6 0 6854
2018-10-14 03:00:00 7.9 7.8 8.1 0 6844
2018-10-14 04:00:00 7.7 7.6 7.9 0 6834
2018-10-14 05:00:00 7.4 7.4 7.6 0 6834
2018-10-14 06:00:00 7.2 7.1 7.4 0 6834
2018-10-14 07:00:00 6.9 6.9 7.1 0 6854
2018-10-14 08:00:00 7 6.9 7.4 0 6942
2018-10-14 09:00:00 7.8 7.4 8.3 0 7020
2018-10-14 10:00:00 8.7 8.3 9.3 0 7060
2018-10-14 11:00:00 9.9 9.4 10.5 0 7060
2018-10-14 12:00:00 11.3 10.7 11.9 0 7060
2018-10-14 13:00:00 12.3 11.9 12.7 0 7070
2018-10-14 14:00:00 12.9 12.7 13.1 0 7070
2018-10-14 15:00:00 13.2 13.1 13.3 0 7070
2018-10-14 16:00:00 13.2 13 13.3 0 7070
2018-10-14 17:00:00 12.5 12.2 13 0 7050
2018-10-14 18:00:00 11.5 11.1 12 0 7000
2018-10-14 19:00:00 10.8 10.6 11.3 0 6972
2018-10-14 20:00:00 10.2 10.1 10.5 0 6932
2018-10-14 21:00:00 9.8 9.6 10 0 6914
2018-10-14 22:00:00 9.5 9.4 9.7 0 6894
2018-10-14 23:00:00 9.1 9 9.4 0 6884
2018-10-15 00:00:00 8.8 8.7 9 0 6864
2018-10-15 01:00:00 8.5 8.4 8.6 0 6854
2018-10-15 02:00:00 8.2 8.1 8.3 0 6854
2018-10-15 03:00:00 8 7.9 8.1 0 6854
2018-10-15 04:00:00 7.7 7.6 8 0 6854
2018-10-15 05:00:00 7.5 7.4 7.6 0 6844
2018-10-15 06:00:00 7.3 7.2 7.5 0 6844
2018-10-15 07:00:00 7 7 7.2 0 6854
2018-10-15 08:00:00 7.1 7 7.5 0 6932
2018-10-15 09:00:00 8 7.6 8.6 0 7000
2018-10-15 10:00:00 9 8.5 9.7 0 7050
2018-10-15 11:00:00 10.3 9.6 11 0 7070
2018-10-15 12:00:00 11.6 10.9 12.1 0 7080
2018-10-15 13:00:00 12.5 12.1 13 0 7098
2018-10-15 14:00:00 13.2 13.1 13.4 0 7098
2018-10-15 15:00:00 13.5 13.4 13.6 0 7088